createdAt,value
2023-01-29T00:02:04.372Z,97031.31
2023-01-29T00:04:31.885Z,97040.41
2023-01-29T00:06:59.833Z,97015.59
2023-01-29T00:09:27.353Z,97028.22
2023-01-29T00:11:54.826Z,97034.00
2023-01-29T00:14:22.508Z,97038.00
2023-01-29T00:16:50.054Z,97046.44
2023-01-29T00:19:19.457Z,97016.44
2023-01-29T00:21:47.183Z,97023.78
2023-01-29T00:24:14.746Z,96997.91
2023-01-29T00:26:43.019Z,97007.03
2023-01-29T00:29:10.602Z,97007.44
2023-01-29T00:31:38.335Z,97009.84
2023-01-29T00:34:05.833Z,96993.38
2023-01-29T00:36:34.658Z,97003.94
2023-01-29T00:39:10.403Z,97007.31
2023-01-29T00:41:56.220Z,97000.47
2023-01-29T00:44:41.442Z,96997.25
2023-01-29T00:47:29.864Z,97002.19
2023-01-29T00:49:58.022Z,96986.75
2023-01-29T00:52:27.000Z,96979.94
2023-01-29T00:54:56.058Z,96970.44
2023-01-29T00:57:23.924Z,96968.00
2023-01-29T00:59:51.985Z,96975.75
2023-01-29T01:02:37.255Z,96968.81
2023-01-29T01:05:06.028Z,96954.31
2023-01-29T01:07:35.270Z,96949.66
2023-01-29T01:10:20.325Z,96947.25
2023-01-29T01:12:48.233Z,96949.66
2023-01-29T01:15:15.714Z,96947.25
2023-01-29T01:17:43.207Z,96933.19
2023-01-29T01:20:11.922Z,96937.19
2023-01-29T01:22:40.750Z,96938.94
2023-01-29T01:25:08.900Z,96952.34
2023-01-29T01:27:40.817Z,96940.94
2023-01-29T01:30:11.963Z,96956.44
2023-01-29T01:32:40.071Z,96963.53
2023-01-29T01:35:09.173Z,96959.91
2023-01-29T01:37:38.577Z,96951.59
2023-01-29T01:40:12.823Z,96961.50
2023-01-29T01:42:40.845Z,96965.25
2023-01-29T01:45:10.239Z,96946.94
2023-01-29T01:47:42.738Z,96956.69
2023-01-29T01:50:15.055Z,96958.19
2023-01-29T01:52:48.251Z,96957.00
2023-01-29T01:55:20.098Z,96975.84
2023-01-29T01:57:52.018Z,96951.59
2023-01-29T02:00:22.700Z,96960.75
2023-01-29T02:03:07.759Z,96955.66
2023-01-29T02:05:54.414Z,96957.09
2023-01-29T02:08:48.580Z,96956.53
2023-01-29T02:11:18.692Z,96960.31
2023-01-29T02:13:46.357Z,96963.53
2023-01-29T02:16:13.922Z,96957.53
2023-01-29T02:18:41.830Z,96951.63
2023-01-29T02:21:25.317Z,96953.22
2023-01-29T02:24:19.607Z,96958.31
2023-01-29T02:26:56.582Z,96933.56
2023-01-29T02:29:35.343Z,96914.63
2023-01-29T02:32:15.208Z,96948.41
2023-01-29T02:35:11.054Z,96954.00
2023-01-29T02:37:44.962Z,96937.94
2023-01-29T02:40:20.989Z,96945.44
2023-01-29T02:42:54.494Z,96952.66
2023-01-29T02:45:33.691Z,96926.13
2023-01-29T02:48:02.728Z,96947.47
2023-01-29T02:50:35.629Z,96921.03
2023-01-29T02:53:09.119Z,96933.38
2023-01-29T02:55:41.095Z,96940.59
2023-01-29T02:58:13.714Z,96949.41
2023-01-29T03:00:46.066Z,96926.22
2023-01-29T03:03:17.432Z,96933.84
2023-01-29T03:05:54.952Z,96946.97
2023-01-29T03:08:36.991Z,96940.53
2023-01-29T03:11:06.601Z,96941.97
2023-01-29T03:13:42.144Z,96953.84
2023-01-29T03:16:19.064Z,96960.00
2023-01-29T03:18:51.077Z,96947.97
2023-01-29T03:21:38.043Z,96948.06
2023-01-29T03:24:25.001Z,96949.59
2023-01-29T03:27:11.505Z,96947.88
2023-01-29T03:29:59.376Z,96969.53
2023-01-29T03:32:31.326Z,96977.50
2023-01-29T03:35:04.065Z,96976.53
2023-01-29T03:37:36.707Z,96987.59
2023-01-29T03:40:05.571Z,96993.09
2023-01-29T03:42:45.244Z,97006.28
2023-01-29T03:45:19.216Z,97009.78
2023-01-29T03:47:55.632Z,97000.13
2023-01-29T03:50:35.275Z,97010.28
2023-01-29T03:53:11.587Z,96973.81
2023-01-29T03:55:44.270Z,96989.34
2023-01-29T03:58:21.772Z,97000.19
2023-01-29T04:00:57.488Z,96989.50
2023-01-29T04:03:33.657Z,96974.19
2023-01-29T04:06:10.546Z,96971.53
2023-01-29T04:08:46.312Z,96960.47
2023-01-29T04:11:17.257Z,96963.38
2023-01-29T04:13:46.549Z,96967.66
2023-01-29T04:16:19.160Z,96949.69
2023-01-29T04:18:49.124Z,96945.00
2023-01-29T04:21:18.092Z,96953.41
2023-01-29T04:23:45.731Z,96953.78
2023-01-29T04:26:39.104Z,96945.13
2023-01-29T04:29:22.951Z,96937.72
2023-01-29T04:32:01.359Z,96939.94
2023-01-29T04:34:40.837Z,96940.03
2023-01-29T04:37:16.905Z,96948.44
2023-01-29T04:39:54.073Z,96945.56
2023-01-29T04:42:30.976Z,96922.22
2023-01-29T04:45:06.626Z,96945.53
2023-01-29T04:47:43.019Z,96920.84
2023-01-29T04:50:18.411Z,96940.84
2023-01-29T04:52:53.573Z,96875.50
2023-01-29T04:55:30.315Z,96881.16
2023-01-29T04:58:05.701Z,96885.66
2023-01-29T05:00:38.362Z,96915.88
2023-01-29T05:03:09.621Z,96892.88
2023-01-29T05:05:41.892Z,96909.44
2023-01-29T05:08:13.217Z,96908.50
2023-01-29T05:10:42.313Z,96920.31
2023-01-29T05:13:14.627Z,96922.03
2023-01-29T05:15:48.591Z,96931.34
2023-01-29T05:18:16.495Z,96924.81
2023-01-29T05:20:46.157Z,96919.53
2023-01-29T05:23:17.654Z,96937.94
2023-01-29T05:25:46.372Z,96935.19
2023-01-29T05:28:16.417Z,96921.00
2023-01-29T05:30:45.730Z,96917.31
2023-01-29T05:33:15.700Z,96913.78
2023-01-29T05:35:44.670Z,96895.38
2023-01-29T05:38:12.304Z,96926.69
2023-01-29T05:40:40.494Z,96926.00
2023-01-29T05:43:15.866Z,96939.69
2023-01-29T05:45:43.384Z,96933.13
2023-01-29T05:48:10.843Z,96919.69
2023-01-29T05:50:38.392Z,96899.41
2023-01-29T05:53:07.230Z,96929.91
2023-01-29T05:55:34.721Z,96917.47
2023-01-29T05:58:04.165Z,96912.41
2023-01-29T06:00:33.050Z,96906.78
2023-01-29T06:03:01.359Z,96922.53
2023-01-29T06:05:28.877Z,96920.59
2023-01-29T06:07:56.372Z,96929.91
2023-01-29T06:10:25.320Z,96924.75
2023-01-29T06:12:52.842Z,96928.53
2023-01-29T06:15:20.623Z,96922.44
2023-01-29T06:17:48.076Z,96917.59
2023-01-29T06:20:15.883Z,96926.44
2023-01-29T06:22:43.571Z,96905.50
2023-01-29T06:25:11.066Z,96920.13
2023-01-29T06:27:39.893Z,96915.84
2023-01-29T06:30:09.040Z,96919.31
2023-01-29T06:32:36.712Z,96906.78
2023-01-29T06:35:04.730Z,96926.44
2023-01-29T06:37:32.193Z,96925.53
2023-01-29T06:39:59.776Z,96918.28
2023-01-29T06:42:28.079Z,96907.13
2023-01-29T06:44:57.438Z,96916.56
2023-01-29T06:47:25.434Z,96922.44
2023-01-29T06:49:53.098Z,96918.06
2023-01-29T06:52:20.728Z,96902.97
2023-01-29T06:54:48.304Z,96918.38
2023-01-29T06:57:15.774Z,96912.78
2023-01-29T06:59:43.196Z,96903.44
2023-01-29T07:02:12.154Z,96904.47
2023-01-29T07:04:41.488Z,96921.16
2023-01-29T07:07:13.035Z,96919.53
2023-01-29T07:09:41.497Z,96917.91
2023-01-29T07:12:09.368Z,96952.91
2023-01-29T07:14:37.212Z,96950.47
2023-01-29T07:17:04.691Z,96979.78
2023-01-29T07:19:33.634Z,96971.41
2023-01-29T07:22:02.275Z,96980.16
2023-01-29T07:24:29.924Z,96980.38
2023-01-29T07:26:57.473Z,96989.34
2023-01-29T07:29:24.914Z,96979.47
2023-01-29T07:31:52.511Z,96968.19
2023-01-29T07:34:20.321Z,96957.69
2023-01-29T07:36:49.262Z,96953.00
2023-01-29T07:39:16.731Z,96955.31
2023-01-29T07:41:44.180Z,96941.97
2023-01-29T07:44:12.443Z,96933.09
2023-01-29T07:46:39.946Z,96956.81
2023-01-29T07:49:07.403Z,96952.22
2023-01-29T07:51:34.827Z,96933.94
2023-01-29T07:54:03.608Z,96954.44
2023-01-29T07:56:31.057Z,96952.13
2023-01-29T07:58:58.480Z,96945.66
2023-01-29T08:01:25.978Z,96951.16
2023-01-29T08:03:53.407Z,96945.34
2023-01-29T08:06:21.021Z,96932.91
2023-01-29T08:08:48.741Z,96942.22
2023-01-29T08:11:17.568Z,96924.94
2023-01-29T08:13:46.337Z,96953.66
2023-01-29T08:16:13.816Z,96950.63
2023-01-29T08:18:43.941Z,96962.78
2023-01-29T08:21:13.056Z,96973.75
2023-01-29T08:23:41.387Z,96976.28
2023-01-29T08:26:09.247Z,96965.44
2023-01-29T08:28:38.725Z,96945.69
2023-01-29T08:31:13.420Z,96955.69
2023-01-29T08:33:40.879Z,96949.16
2023-01-29T08:36:09.621Z,96945.59
2023-01-29T08:38:37.132Z,96887.66
2023-01-29T08:41:04.852Z,96947.72
2023-01-29T08:43:32.328Z,96962.88
2023-01-29T08:46:01.218Z,96965.94
2023-01-29T08:48:30.157Z,96968.38
2023-01-29T08:50:59.280Z,96957.81
2023-01-29T08:53:26.895Z,96952.50
2023-01-29T08:55:54.803Z,96946.56
2023-01-29T08:58:22.542Z,96952.88
2023-01-29T09:00:50.327Z,96953.72
2023-01-29T09:03:19.108Z,96956.25
2023-01-29T09:05:46.886Z,96958.66
2023-01-29T09:08:15.346Z,96963.88
2023-01-29T09:10:42.798Z,96962.28
2023-01-29T09:13:10.284Z,96947.94
2023-01-29T09:15:37.725Z,96959.47
2023-01-29T09:18:06.084Z,96955.72
2023-01-29T09:20:35.222Z,96954.38
2023-01-29T09:23:05.979Z,96949.00
2023-01-29T09:25:33.477Z,96962.13
2023-01-29T09:28:01.172Z,96938.81
2023-01-29T09:30:28.683Z,96955.03
2023-01-29T09:32:56.921Z,96974.31
2023-01-29T09:35:24.587Z,96962.50
2023-01-29T09:37:53.461Z,96959.25
2023-01-29T09:40:27.483Z,96948.50
2023-01-29T09:43:02.732Z,96940.25
2023-01-29T09:45:31.708Z,96959.75
2023-01-29T09:48:02.238Z,96934.16
2023-01-29T09:50:33.654Z,96931.06
2023-01-29T09:53:12.172Z,96940.78
2023-01-29T09:55:46.538Z,96924.25
2023-01-29T09:58:20.403Z,96906.41
2023-01-29T10:00:58.270Z,96928.41
2023-01-29T10:03:44.675Z,96920.84
2023-01-29T10:06:31.560Z,96933.53
2023-01-29T10:09:36.030Z,96921.81
2023-01-29T10:12:17.325Z,96925.06
2023-01-29T10:14:54.578Z,96917.03
2023-01-29T10:17:38.036Z,96931.00
2023-01-29T10:20:34.339Z,96930.19
2023-01-29T10:23:27.456Z,96914.72
2023-01-29T10:25:56.668Z,96916.84
2023-01-29T10:28:29.079Z,96913.38
2023-01-29T10:31:00.877Z,96910.19
2023-01-29T10:33:49.246Z,96896.00
2023-01-29T10:36:25.217Z,96894.84
2023-01-29T10:38:53.356Z,96883.88
2023-01-29T10:41:41.794Z,96885.53
2023-01-29T10:44:20.820Z,96875.06
2023-01-29T10:47:02.389Z,96852.53
2023-01-29T10:49:46.606Z,96852.44
2023-01-29T10:52:29.528Z,96835.97
2023-01-29T10:55:09.963Z,96814.59
2023-01-29T10:57:53.516Z,96830.47
2023-01-29T11:00:24.658Z,96834.06
2023-01-29T11:02:53.105Z,96833.41
2023-01-29T11:05:26.527Z,96825.66
2023-01-29T11:08:04.190Z,96836.59
2023-01-29T11:10:37.854Z,96833.94
2023-01-29T11:13:07.194Z,96828.59
2023-01-29T11:15:35.586Z,96833.94
2023-01-29T11:18:05.986Z,96837.03
2023-01-29T11:20:34.843Z,96828.63
2023-01-29T11:23:02.302Z,96837.44
2023-01-29T11:25:32.478Z,96828.34
2023-01-29T11:28:01.806Z,96829.94
2023-01-29T11:30:34.613Z,96819.38
2023-01-29T11:33:09.754Z,96817.25
2023-01-29T11:35:37.933Z,96822.44
2023-01-29T11:38:18.380Z,96808.09
2023-01-29T11:40:46.429Z,96818.72
2023-01-29T11:43:29.847Z,96808.00
2023-01-29T11:46:01.472Z,96801.69
2023-01-29T11:48:40.550Z,96799.19
2023-01-29T11:51:11.235Z,96805.09
2023-01-29T11:53:41.912Z,96795.50
2023-01-29T11:56:23.295Z,96790.03
2023-01-29T11:58:53.717Z,96778.94
2023-01-29T12:01:32.927Z,96751.06
2023-01-29T12:04:01.291Z,96772.31
2023-01-29T12:06:36.560Z,96767.53
2023-01-29T12:09:11.673Z,96768.75
2023-01-29T12:11:39.120Z,96771.72
2023-01-29T12:14:23.057Z,96763.47
2023-01-29T12:16:57.103Z,96742.41
2023-01-29T12:19:32.403Z,96770.69
2023-01-29T12:22:05.327Z,96763.91
2023-01-29T12:24:37.417Z,96744.13
2023-01-29T12:27:13.030Z,96754.81
2023-01-29T12:29:47.745Z,96747.75
2023-01-29T12:32:30.667Z,96756.44
2023-01-29T12:35:05.457Z,96708.31
2023-01-29T12:37:42.024Z,96741.78
2023-01-29T12:40:15.456Z,96739.69
2023-01-29T12:42:48.206Z,96740.53
2023-01-29T12:45:20.060Z,96723.66
2023-01-29T12:47:52.733Z,96727.34
2023-01-29T12:50:22.899Z,96718.34
2023-01-29T12:52:54.718Z,96711.06
2023-01-29T12:55:25.617Z,96706.03
2023-01-29T12:57:57.530Z,96695.56
2023-01-29T13:00:28.015Z,96698.44
2023-01-29T13:03:02.535Z,96685.66
2023-01-29T13:05:35.404Z,96695.13
2023-01-29T13:08:08.271Z,96689.00
2023-01-29T13:10:39.364Z,96694.31
2023-01-29T13:13:16.793Z,96681.69
2023-01-29T13:15:45.024Z,96680.84
2023-01-29T13:18:37.446Z,96669.88
2023-01-29T13:21:05.986Z,96667.28
2023-01-29T13:23:37.958Z,96662.25
2023-01-29T13:26:06.583Z,96673.47
2023-01-29T13:28:34.286Z,96671.97
2023-01-29T13:31:14.300Z,96665.75
2023-01-29T13:33:44.628Z,96663.75
2023-01-29T13:36:18.108Z,96653.97
2023-01-29T13:38:45.953Z,96660.19
2023-01-29T13:41:15.553Z,96663.53
2023-01-29T13:43:49.314Z,96650.72
2023-01-29T13:46:21.204Z,96651.94
2023-01-29T13:48:54.422Z,96649.78
2023-01-29T13:51:28.227Z,96634.75
2023-01-29T13:54:01.240Z,96631.25
2023-01-29T13:56:48.837Z,96625.38
2023-01-29T13:59:23.684Z,96618.28
2023-01-29T14:02:19.929Z,96615.09
2023-01-29T14:04:48.754Z,96622.06
2023-01-29T14:07:49.630Z,96623.50
2023-01-29T14:10:20.145Z,96628.16
2023-01-29T14:12:49.935Z,96594.72
2023-01-29T14:15:22.109Z,96624.00
2023-01-29T14:18:01.317Z,96621.28
2023-01-29T14:20:50.573Z,96625.75
2023-01-29T14:23:24.971Z,96619.22
2023-01-29T14:25:52.749Z,96614.41
2023-01-29T14:28:24.953Z,96612.19
2023-01-29T14:30:53.336Z,96613.47
2023-01-29T14:33:32.363Z,96594.25
2023-01-29T14:36:06.310Z,96589.47
2023-01-29T14:38:34.759Z,96579.69
2023-01-29T14:41:06.727Z,96564.31
2023-01-29T14:43:34.168Z,96562.75
2023-01-29T14:46:34.802Z,96559.72
2023-01-29T14:49:02.696Z,96563.72
2023-01-29T14:51:38.522Z,96601.63
2023-01-29T14:54:14.965Z,96603.06
2023-01-29T14:56:47.828Z,96603.69
2023-01-29T14:59:20.378Z,96609.94
2023-01-29T15:01:52.939Z,96615.53
2023-01-29T15:04:26.288Z,96610.09
2023-01-29T15:07:00.371Z,96628.94
2023-01-29T15:09:40.785Z,96611.84
2023-01-29T15:12:19.447Z,96619.22
2023-01-29T15:14:53.165Z,96627.34
2023-01-29T15:17:27.089Z,96627.84
2023-01-29T15:19:56.587Z,96622.88
2023-01-29T15:22:26.332Z,96623.06
2023-01-29T15:25:07.327Z,96620.81
2023-01-29T15:27:35.424Z,96630.09
2023-01-29T15:30:05.946Z,96634.88
2023-01-29T15:32:36.953Z,96625.91
2023-01-29T15:35:10.178Z,96593.59
2023-01-29T15:37:39.418Z,96635.16
2023-01-29T15:40:15.669Z,96637.59
2023-01-29T15:42:46.507Z,96634.38
2023-01-29T15:45:30.938Z,96624.63
2023-01-29T15:48:04.320Z,96623.66
2023-01-29T15:50:33.720Z,96631.50
2023-01-29T15:53:07.587Z,96616.16
2023-01-29T15:55:36.700Z,96625.56
2023-01-29T15:58:05.097Z,96631.50
2023-01-29T16:00:32.649Z,96623.00
2023-01-29T16:03:01.509Z,96604.94
2023-01-29T16:05:32.845Z,96634.06
2023-01-29T16:08:02.516Z,96620.31
2023-01-29T16:10:32.357Z,96614.50
2023-01-29T16:13:00.550Z,96645.38
2023-01-29T16:15:33.459Z,96638.50
2023-01-29T16:18:03.450Z,96640.44
2023-01-29T16:20:34.191Z,96640.59
2023-01-29T16:23:03.472Z,96645.06
2023-01-29T16:25:31.723Z,96638.81
2023-01-29T16:27:59.589Z,96636.91
2023-01-29T16:30:28.620Z,96634.66
2023-01-29T16:33:03.407Z,96638.50
2023-01-29T16:35:31.504Z,96636.25
2023-01-29T16:38:03.703Z,96623.78
2023-01-29T16:40:53.504Z,96620.44
2023-01-29T16:43:52.306Z,96627.31
2023-01-29T16:46:25.099Z,96611.81
2023-01-29T16:48:53.577Z,96633.38
2023-01-29T16:51:26.769Z,96630.31
2023-01-29T16:53:58.107Z,96615.94
2023-01-29T16:56:29.387Z,96622.31
2023-01-29T16:58:57.150Z,96624.56
2023-01-29T17:01:26.380Z,96619.63
2023-01-29T17:04:00.559Z,96593.97
2023-01-29T17:06:29.597Z,96632.38
2023-01-29T17:08:57.446Z,96612.69
2023-01-29T17:11:33.043Z,96616.41
2023-01-29T17:14:01.732Z,96574.34
2023-01-29T17:16:32.403Z,96531.38
2023-01-29T17:19:00.807Z,96541.31
2023-01-29T17:21:30.097Z,96583.34
2023-01-29T17:23:57.794Z,96590.56
2023-01-29T17:26:27.103Z,96566.88
2023-01-29T17:28:55.301Z,96593.09
2023-01-29T17:31:23.086Z,96565.28
2023-01-29T17:33:50.978Z,96589.28
2023-01-29T17:36:18.857Z,96573.91
2023-01-29T17:38:47.018Z,96600.44
2023-01-29T17:41:19.574Z,96596.44
2023-01-29T17:43:48.514Z,96605.56
2023-01-29T17:46:17.534Z,96600.59
2023-01-29T17:48:49.007Z,96594.06
2023-01-29T17:51:19.125Z,96591.66
2023-01-29T17:53:47.595Z,96610.69
2023-01-29T17:56:17.837Z,96600.13
2023-01-29T17:58:45.530Z,96596.28
2023-01-29T18:01:14.509Z,96594.19
2023-01-29T18:03:42.142Z,96578.69
2023-01-29T18:06:10.812Z,96561.25
2023-01-29T18:08:40.734Z,96580.44
2023-01-29T18:11:17.195Z,96580.13
2023-01-29T18:13:44.757Z,96569.44
2023-01-29T18:16:18.368Z,96530.09
2023-01-29T18:18:46.240Z,96485.81
2023-01-29T18:21:13.896Z,96531.84
2023-01-29T18:23:43.091Z,96560.47
2023-01-29T18:26:11.999Z,96563.97
2023-01-29T18:28:40.443Z,96526.56
2023-01-29T18:31:08.749Z,96519.41
2023-01-29T18:33:37.784Z,96560.78
2023-01-29T18:36:06.758Z,96546.72
2023-01-29T18:38:34.325Z,96507.22
2023-01-29T18:41:06.168Z,96527.38
2023-01-29T18:43:33.808Z,96532.63
2023-01-29T18:46:01.474Z,96543.22
2023-01-29T18:48:29.288Z,96543.03
2023-01-29T18:50:58.341Z,96561.88
2023-01-29T18:53:26.157Z,96531.88
2023-01-29T18:56:02.707Z,96540.97
2023-01-29T18:58:35.734Z,96503.41
2023-01-29T19:01:09.033Z,96533.16
2023-01-29T19:03:37.610Z,96540.69
2023-01-29T19:06:08.929Z,96534.75
2023-01-29T19:08:36.929Z,96526.97
2023-01-29T19:11:07.987Z,96528.56
2023-01-29T19:13:36.415Z,96524.44
2023-01-29T19:16:07.971Z,96506.22
2023-01-29T19:18:35.569Z,96507.00
2023-01-29T19:21:10.068Z,96500.94
2023-01-29T19:23:40.290Z,96489.44
2023-01-29T19:26:09.757Z,96493.88
2023-01-29T19:28:39.671Z,96448.72
2023-01-29T19:31:09.334Z,96453.00
2023-01-29T19:33:37.304Z,96500.28
2023-01-29T19:36:08.062Z,96484.13
2023-01-29T19:38:40.005Z,96494.19
2023-01-29T19:41:07.861Z,96476.75
2023-01-29T19:43:39.135Z,96488.25
2023-01-29T19:46:09.112Z,96477.56
2023-01-29T19:48:36.969Z,96480.56
2023-01-29T19:51:10.418Z,96438.88
2023-01-29T19:53:42.218Z,96483.56
2023-01-29T19:56:12.503Z,96477.31
2023-01-29T19:58:40.427Z,96451.41
2023-01-29T20:01:16.091Z,96416.00
2023-01-29T20:03:46.320Z,96424.31
2023-01-29T20:06:15.566Z,96461.16
2023-01-29T20:08:46.627Z,96414.41
2023-01-29T20:11:14.681Z,96417.13
2023-01-29T20:13:42.303Z,96466.19
2023-01-29T20:16:10.043Z,96471.81
2023-01-29T20:18:37.652Z,96434.63
2023-01-29T20:21:09.228Z,96470.06
2023-01-29T20:23:38.927Z,96457.09
2023-01-29T20:26:10.768Z,96434.44
2023-01-29T20:28:40.779Z,96424.72
2023-01-29T20:31:10.863Z,96434.94
2023-01-29T20:33:39.654Z,96442.09
2023-01-29T20:36:09.930Z,96426.94
2023-01-29T20:38:37.882Z,96434.25
2023-01-29T20:41:08.702Z,96418.28
2023-01-29T20:43:36.924Z,96442.09
2023-01-29T20:46:05.203Z,96426.63
2023-01-29T20:48:33.574Z,96434.63
2023-01-29T20:51:07.812Z,96423.91
2023-01-29T20:53:35.481Z,96415.13
2023-01-29T20:56:04.871Z,96414.66
2023-01-29T20:58:34.784Z,96398.03
2023-01-29T21:01:05.421Z,96393.41
2023-01-29T21:03:33.034Z,96376.00
2023-01-29T21:06:00.750Z,96348.53
2023-01-29T21:08:28.586Z,96365.59
2023-01-29T21:10:56.204Z,96348.16
2023-01-29T21:13:23.889Z,96343.34
2023-01-29T21:15:52.695Z,96368.94
2023-01-29T21:18:20.274Z,96365.25
2023-01-29T21:20:49.509Z,96355.03
2023-01-29T21:23:16.966Z,96363.34
2023-01-29T21:25:45.028Z,96371.00
2023-01-29T21:28:15.051Z,96345.75
2023-01-29T21:30:42.775Z,96368.78
2023-01-29T21:33:11.696Z,96368.78
2023-01-29T21:35:39.333Z,96356.94
2023-01-29T21:38:06.760Z,96370.81
2023-01-29T21:40:34.237Z,96374.47
2023-01-29T21:43:15.274Z,96350.47
2023-01-29T21:45:43.992Z,96349.19
2023-01-29T21:48:13.031Z,96327.75
2023-01-29T21:50:40.526Z,96322.34
2023-01-29T21:53:08.001Z,96311.34
2023-01-29T21:55:35.501Z,96315.94
2023-01-29T21:58:04.140Z,96328.09
2023-01-29T22:00:31.608Z,96326.97
2023-01-29T22:02:59.071Z,96308.66
2023-01-29T22:05:28.996Z,96324.22
2023-01-29T22:07:56.614Z,96318.25
2023-01-29T22:10:24.120Z,96324.25
2023-01-29T22:12:51.658Z,96316.06
2023-01-29T22:15:19.230Z,96301.00
2023-01-29T22:17:46.687Z,96287.56
2023-01-29T22:20:16.173Z,96302.97
2023-01-29T22:22:45.270Z,96252.19
2023-01-29T22:25:12.907Z,96314.66
2023-01-29T22:27:40.500Z,96307.03
2023-01-29T22:30:09.385Z,96317.72
2023-01-29T22:32:36.899Z,96336.44
2023-01-29T22:35:04.701Z,96333.06
2023-01-29T22:37:32.157Z,96332.47
2023-01-29T22:40:00.904Z,96346.69
2023-01-29T22:42:28.713Z,96339.44
2023-01-29T22:44:56.169Z,96335.22
2023-01-29T22:47:23.646Z,96337.81
2023-01-29T22:49:52.327Z,96314.56
2023-01-29T22:52:21.898Z,96312.91
2023-01-29T22:54:51.173Z,96305.25
2023-01-29T22:57:20.154Z,96324.06
2023-01-29T22:59:47.603Z,96325.94
2023-01-29T23:02:15.120Z,96280.53
2023-01-29T23:04:42.689Z,96293.47
2023-01-29T23:07:11.186Z,96281.66
2023-01-29T23:09:38.627Z,96283.41
2023-01-29T23:12:06.816Z,96301.00
2023-01-29T23:14:35.627Z,96310.47
2023-01-29T23:17:03.104Z,96299.34
2023-01-29T23:19:30.862Z,96284.53
2023-01-29T23:21:58.312Z,96319.84
2023-01-29T23:24:25.766Z,96298.16
2023-01-29T23:27:11.107Z,96302.88
2023-01-29T23:29:40.059Z,96268.78
2023-01-29T23:32:08.043Z,96271.38
2023-01-29T23:34:35.595Z,96250.94
2023-01-29T23:37:03.091Z,96259.25
2023-01-29T23:39:30.640Z,96251.81
2023-01-29T23:41:58.167Z,96238.19
2023-01-29T23:44:25.648Z,96263.06
2023-01-29T23:46:54.728Z,96243.50
2023-01-29T23:49:22.542Z,96215.28
2023-01-29T23:51:50.356Z,96211.91
2023-01-29T23:54:18.762Z,96205.19
2023-01-29T23:56:46.768Z,96211.91
2023-01-29T23:59:14.731Z,96219.97
